createdAt,value
2019-04-21T00:01:57.801Z,15.33
2019-04-21T00:04:38.037Z,15.30
2019-04-21T00:07:14.403Z,13.97
2019-04-21T00:09:56.393Z,15.93
2019-04-21T00:12:15.436Z,15.27
2019-04-21T00:14:42.404Z,14.63
2019-04-21T00:17:05.062Z,15.67
2019-04-21T00:19:35.720Z,14.17
2019-04-21T00:22:14.927Z,14.50
2019-04-21T00:24:47.477Z,15.13
2019-04-21T00:27:21.435Z,13.47
2019-04-21T00:29:52.057Z,13.77
2019-04-21T00:32:19.483Z,14.07
2019-04-21T00:34:34.269Z,12.37
2019-04-21T00:37:12.308Z,13.80
2019-04-21T00:42:25.428Z,13.07
2019-04-21T00:44:47.319Z,12.93
2019-04-21T00:47:28.950Z,13.83
2019-04-21T00:49:56.645Z,13.10
2019-04-21T00:52:51.267Z,14.03
2019-04-21T00:57:51.499Z,13.27
2019-04-21T01:00:18.594Z,14.70
2019-04-21T01:02:53.690Z,15.27
2019-04-21T01:05:16.460Z,15.07
2019-04-21T01:07:46.511Z,15.40
2019-04-21T01:10:09.335Z,13.90
2019-04-21T01:12:49.507Z,13.60
2019-04-21T01:15:24.724Z,13.67
2019-04-21T01:17:46.286Z,14.53
2019-04-21T01:20:10.449Z,14.93
2019-04-21T01:22:28.424Z,14.50
2019-04-21T01:25:11.947Z,13.90
2019-04-21T01:27:55.182Z,14.07
2019-04-21T01:30:31.210Z,14.13
2019-04-21T01:33:09.559Z,15.53
2019-04-21T01:35:40.304Z,15.50
2019-04-21T01:38:06.756Z,14.67
2019-04-21T01:40:42.830Z,14.07
2019-04-21T01:43:27.567Z,13.90
2019-04-21T01:45:54.941Z,13.43
2019-04-21T01:48:24.469Z,14.53
2019-04-21T01:50:56.823Z,13.63
2019-04-21T01:53:44.733Z,14.03
2019-04-21T01:58:57.562Z,13.60
2019-04-21T02:01:49.069Z,14.00
2019-04-21T02:04:24.017Z,14.37
2019-04-21T02:06:44.552Z,14.63
2019-04-21T02:09:17.295Z,13.83
2019-04-21T02:11:50.919Z,13.53
2019-04-21T02:14:19.699Z,13.37
2019-04-21T02:16:47.987Z,14.07
2019-04-21T02:19:13.976Z,12.77
2019-04-21T02:21:41.051Z,11.43
2019-04-21T02:24:30.108Z,11.93
2019-04-21T02:26:45.749Z,11.20
2019-04-21T02:29:22.984Z,11.23
2019-04-21T02:32:07.846Z,11.03
2019-04-21T02:34:37.042Z,11.47
2019-04-21T02:37:25.299Z,10.67
2019-04-21T02:39:27.986Z,10.80
2019-04-21T02:44:39.273Z,9.93
2019-04-21T02:52:14.223Z,10.50
2019-04-21T03:00:06.987Z,10.50
2019-04-21T03:02:54.758Z,10.10
2019-04-21T03:08:40.353Z,10.40
2019-04-21T03:10:59.250Z,10.80
2019-04-21T03:13:31.418Z,10.27
2019-04-21T03:23:31.929Z,10.60
2019-04-21T03:26:03.359Z,9.43
2019-04-21T03:28:30.124Z,9.53
2019-04-21T03:34:02.562Z,10.20
2019-04-21T03:38:30.826Z,10.53
2019-04-21T03:40:47.149Z,10.13
2019-04-21T03:45:52.716Z,10.87
2019-04-21T03:48:27.181Z,9.70
2019-04-21T03:50:59.504Z,11.00
2019-04-21T03:56:12.465Z,10.63
2019-04-21T03:58:50.534Z,9.63
2019-04-21T04:04:04.655Z,9.43
2019-04-21T04:09:44.421Z,9.63
2019-04-21T04:12:12.430Z,8.90
2019-04-21T04:19:41.940Z,10.40
2019-04-21T04:24:49.829Z,9.83
2019-04-21T04:27:20.875Z,9.77
2019-04-21T04:29:39.796Z,10.17
2019-04-21T04:32:20.099Z,9.23
2019-04-21T05:21:03.846Z,8.97
2019-04-21T05:23:45.714Z,9.80
2019-04-21T05:26:41.965Z,8.97
2019-04-21T05:29:38.912Z,9.10
2019-04-21T05:35:07.992Z,8.90
2019-04-21T05:38:03.120Z,8.40
2019-04-21T05:40:33.541Z,9.07
2019-04-21T05:43:10.915Z,8.97
2019-04-21T05:45:45.339Z,8.57
2019-04-21T05:48:24.212Z,8.60
2019-04-21T05:50:53.855Z,8.73
2019-04-21T05:53:31.377Z,8.90
2019-04-21T05:55:58.674Z,7.63
2019-04-21T05:58:30.138Z,8.60
2019-04-21T06:03:44.793Z,8.87
2019-04-21T06:08:42.310Z,8.27
2019-04-21T06:11:19.153Z,7.73
2019-04-21T06:16:19.283Z,7.83
2019-04-21T06:18:53.287Z,8.30
2019-04-21T06:21:18.885Z,8.03
2019-04-21T06:23:45.029Z,7.27
2019-04-21T06:26:46.919Z,7.83
2019-04-21T06:31:21.666Z,7.67
2019-04-21T06:37:14.948Z,11.47
2019-04-21T06:39:51.933Z,8.63
2019-04-21T06:42:09.145Z,7.97
2019-04-21T06:48:11.191Z,7.47
2019-04-21T06:50:44.149Z,7.57
2019-04-21T06:53:20.763Z,7.23
2019-04-21T06:55:44.077Z,7.57
2019-04-21T06:58:10.067Z,6.27
2019-04-21T07:00:43.798Z,6.13
2019-04-21T07:03:19.327Z,6.10
2019-04-21T07:05:58.963Z,6.40
2019-04-21T07:08:29.390Z,6.27
2019-04-21T07:10:51.738Z,6.13
2019-04-21T07:13:15.607Z,6.10
2019-04-21T07:15:53.544Z,6.13
2019-04-21T07:18:19.502Z,6.40
2019-04-21T07:20:49.014Z,6.90
2019-04-21T07:23:16.231Z,6.40
2019-04-21T07:25:51.961Z,6.27
2019-04-21T07:28:25.301Z,6.30
2019-04-21T07:31:02.035Z,6.27
2019-04-21T07:35:57.841Z,6.37
2019-04-21T07:38:27.420Z,6.60
2019-04-21T07:40:45.510Z,6.20
2019-04-21T07:43:20.432Z,6.10
2019-04-21T07:45:50.175Z,5.53
2019-04-21T07:48:31.326Z,6.60
2019-04-21T07:51:11.285Z,6.33
2019-04-21T07:54:01.941Z,6.57
2019-04-21T07:56:15.902Z,6.60
2019-04-21T07:59:03.745Z,6.97
2019-04-21T08:01:30.776Z,7.10
2019-04-21T08:04:03.677Z,8.13
2019-04-21T08:06:41.902Z,6.77
2019-04-21T08:08:54.076Z,7.07
2019-04-21T08:11:28.243Z,7.03
2019-04-21T08:14:04.580Z,7.07
2019-04-21T08:16:30.426Z,6.40
2019-04-21T08:19:10.013Z,6.90
2019-04-21T08:21:35.456Z,7.63
2019-04-21T08:24:04.728Z,6.90
2019-04-21T08:26:36.954Z,6.93
2019-04-21T08:29:13.114Z,8.23
2019-04-21T08:31:38.292Z,7.77
2019-04-21T08:34:08.402Z,7.70
2019-04-21T08:36:44.801Z,7.87
2019-04-21T08:39:01.393Z,7.97
2019-04-21T08:41:31.627Z,8.17
2019-04-21T08:44:02.222Z,7.20
2019-04-21T08:46:39.212Z,8.40
2019-04-21T08:49:08.082Z,7.60
2019-04-21T08:51:39.485Z,6.97
2019-04-21T08:54:09.312Z,7.13
2019-04-21T08:56:59.239Z,6.63
2019-04-21T08:59:37.621Z,6.90
2019-04-21T09:02:23.587Z,7.60
2019-04-21T09:04:54.191Z,7.27
2019-04-21T09:07:32.051Z,6.97
2019-04-21T09:09:57.446Z,7.20
2019-04-21T09:12:29.085Z,6.60
2019-04-21T09:15:01.326Z,6.67
2019-04-21T09:17:27.699Z,6.80
2019-04-21T09:20:08.005Z,7.33
2019-04-21T09:22:30.221Z,6.87
2019-04-21T09:25:00.206Z,6.83
2019-04-21T09:27:27.639Z,7.10
2019-04-21T09:29:47.887Z,6.77
2019-04-21T09:32:21.798Z,6.67
2019-04-21T09:34:47.509Z,6.53
2019-04-21T09:37:28.702Z,6.00
2019-04-21T09:39:49.990Z,6.33
2019-04-21T09:42:18.449Z,6.27
2019-04-21T09:44:47.567Z,4.67
2019-04-21T09:47:22.866Z,4.30
2019-04-21T09:49:49.341Z,4.97
2019-04-21T09:52:37.745Z,4.57
2019-04-21T09:55:06.960Z,3.87
2019-04-21T09:57:41.313Z,3.53
2019-04-21T10:00:13.112Z,4.30
2019-04-21T10:02:42.869Z,4.33
2019-04-21T10:05:07.757Z,3.93
2019-04-21T10:07:40.520Z,3.80
2019-04-21T10:10:08.170Z,3.93
2019-04-21T10:12:37.446Z,5.13
2019-04-21T10:15:06.301Z,4.53
2019-04-21T10:17:37.971Z,3.97
2019-04-21T10:20:07.159Z,3.70
2019-04-21T10:22:35.460Z,4.37
2019-04-21T10:25:04.723Z,3.83
2019-04-21T10:27:43.165Z,3.90
2019-04-21T10:30:14.347Z,4.00
2019-04-21T10:32:42.774Z,4.00
2019-04-21T10:35:11.271Z,4.40
2019-04-21T10:38:00.816Z,4.40
2019-04-21T10:40:15.939Z,3.60
2019-04-21T10:42:44.216Z,5.10
2019-04-21T10:45:12.959Z,4.93
2019-04-21T10:47:41.109Z,3.87
2019-04-21T10:50:10.927Z,3.73
2019-04-21T10:52:56.710Z,3.63
2019-04-21T10:55:40.222Z,3.80
2019-04-21T10:58:34.130Z,3.80
2019-04-21T11:01:21.080Z,3.70
2019-04-21T11:04:27.788Z,3.20
2019-04-21T11:07:13.513Z,3.20
2019-04-21T11:09:36.149Z,3.30
2019-04-21T11:12:06.263Z,3.40
2019-04-21T11:14:35.494Z,3.63
2019-04-21T11:17:06.110Z,3.40
2019-04-21T11:19:34.894Z,4.13
2019-04-21T11:22:05.045Z,9.43
2019-04-21T11:24:33.413Z,5.20
2019-04-21T11:27:06.763Z,2.60
2019-04-21T11:29:37.142Z,2.87
2019-04-21T13:53:04.938Z,3.20
2019-04-21T14:19:07.597Z,2.43
2019-04-21T14:26:36.767Z,3.40
2019-04-21T14:49:03.723Z,3.93
2019-04-21T14:51:52.665Z,3.27
2019-04-21T17:50:41.285Z,5.00
2019-04-21T17:54:21.277Z,5.10
2019-04-21T18:57:24.409Z,5.57
2019-04-21T19:00:26.443Z,5.17
2019-04-21T19:19:50.801Z,5.40
2019-04-21T19:22:14.208Z,6.03
2019-04-21T19:25:31.499Z,5.67
2019-04-21T19:28:36.181Z,5.73
2019-04-21T19:31:34.982Z,6.10
2019-04-21T19:50:30.569Z,6.20
2019-04-21T19:53:26.759Z,6.77
2019-04-21T19:58:05.357Z,7.63
2019-04-21T20:00:34.665Z,5.67
2019-04-21T20:03:03.104Z,6.20
2019-04-21T20:05:43.062Z,7.00
2019-04-21T20:08:17.650Z,5.80
2019-04-21T20:10:48.465Z,6.07
2019-04-21T20:13:22.278Z,6.13
2019-04-21T20:15:51.069Z,6.40
2019-04-21T20:18:16.534Z,6.13
2019-04-21T20:20:33.007Z,6.40
2019-04-21T20:23:01.386Z,6.33
2019-04-21T20:25:34.408Z,6.00
2019-04-21T20:28:07.211Z,5.77
2019-04-21T20:30:51.115Z,5.73
2019-04-21T20:35:58.749Z,5.50
2019-04-21T20:38:12.596Z,5.20
2019-04-21T20:40:41.257Z,5.90
2019-04-21T20:43:28.648Z,5.07
2019-04-21T20:45:54.073Z,6.13
2019-04-21T20:48:08.202Z,5.83
2019-04-21T20:50:49.949Z,5.63
2019-04-21T20:53:19.788Z,6.13
2019-04-21T20:55:48.969Z,5.63
2019-04-21T20:58:15.094Z,5.70
2019-04-21T21:01:04.263Z,5.50
2019-04-21T21:03:24.856Z,5.20
2019-04-21T21:05:47.526Z,5.30
2019-04-21T21:08:26.152Z,5.20
2019-04-21T21:10:45.357Z,5.20
2019-04-21T21:13:26.720Z,5.90
2019-04-21T21:15:51.436Z,5.03
2019-04-21T21:18:37.989Z,5.23
2019-04-21T21:20:53.048Z,4.97
2019-04-21T21:23:14.519Z,6.50
2019-04-21T21:28:52.559Z,5.83
2019-04-21T21:31:35.086Z,5.60
2019-04-21T21:34:02.380Z,5.30
2019-04-21T21:36:27.461Z,5.47
2019-04-21T21:38:59.775Z,5.43
2019-04-21T21:41:22.131Z,5.47
2019-04-21T21:43:45.183Z,5.87
2019-04-21T21:46:30.951Z,5.30
2019-04-21T21:48:54.133Z,5.43
2019-04-21T21:51:22.807Z,5.70
2019-04-21T21:53:44.408Z,5.40
2019-04-21T21:56:12.736Z,5.53
2019-04-21T21:58:42.880Z,5.97
2019-04-21T22:01:14.792Z,5.67
2019-04-21T22:03:46.551Z,6.57
2019-04-21T22:06:17.509Z,6.13
2019-04-21T22:08:43.048Z,5.50
2019-04-21T22:11:11.333Z,5.50
2019-04-21T22:13:47.619Z,5.30
2019-04-21T22:16:14.476Z,5.90
2019-04-21T22:19:04.688Z,5.87
2019-04-21T22:21:34.645Z,5.77
2019-04-21T22:23:52.845Z,5.40
2019-04-21T22:26:13.542Z,5.67
2019-04-21T22:28:41.669Z,5.37
2019-04-21T22:31:15.153Z,5.70
2019-04-21T22:33:47.938Z,5.80
2019-04-21T22:36:21.032Z,5.57
2019-04-21T22:38:54.903Z,6.00
2019-04-21T22:41:18.952Z,5.53
2019-04-21T22:43:43.884Z,5.53
2019-04-21T22:46:11.627Z,5.10
2019-04-21T22:48:38.794Z,4.83
2019-04-21T22:51:10.449Z,5.47
2019-04-21T22:53:44.875Z,5.40
2019-04-21T22:56:14.867Z,5.33
2019-04-21T22:58:42.259Z,5.37
2019-04-21T23:01:28.247Z,5.10
2019-04-21T23:04:00.437Z,4.93
2019-04-21T23:06:27.589Z,8.47
2019-04-21T23:08:53.147Z,7.97
2019-04-21T23:11:21.533Z,8.17
2019-04-21T23:13:55.003Z,10.53
2019-04-21T23:16:26.162Z,14.40
2019-04-21T23:19:08.124Z,14.70
2019-04-21T23:21:30.445Z,11.17
2019-04-21T23:24:05.936Z,6.73
2019-04-21T23:26:37.917Z,6.20
2019-04-21T23:29:07.513Z,5.10
2019-04-21T23:31:44.454Z,8.33
2019-04-21T23:33:48.710Z,15.70
2019-04-21T23:36:22.354Z,12.93
2019-04-21T23:38:50.667Z,10.37
2019-04-21T23:41:17.363Z,6.57
2019-04-21T23:43:53.097Z,5.43
2019-04-21T23:46:22.089Z,4.73
2019-04-21T23:49:01.823Z,5.63
2019-04-21T23:51:32.430Z,4.33
2019-04-21T23:53:47.186Z,5.23
2019-04-21T23:56:21.655Z,4.27
2019-04-21T23:58:54.185Z,4.40
